createdAt,value
2019-01-03T00:01:36.450Z,19.6
2019-01-03T00:07:00.352Z,18.5
2019-01-03T00:12:23.100Z,18.799999
2019-01-03T00:17:45.753Z,16.700001
2019-01-03T00:23:08.517Z,19.299999
2019-01-03T00:28:35.835Z,15.2
2019-01-03T00:33:57.526Z,16.9
2019-01-03T00:39:21.426Z,17.9
2019-01-03T00:44:44.312Z,15.1
2019-01-03T00:50:09.571Z,14.5
2019-01-03T00:55:34.263Z,19.5
2019-01-03T01:00:57.798Z,17.200001
2019-01-03T01:06:20.520Z,16.4
2019-01-03T01:11:43.878Z,13.2
2019-01-03T01:17:06.754Z,12.2
2019-01-03T01:22:41.994Z,12.8
2019-01-03T01:28:06.136Z,14.6
2019-01-03T01:33:29.280Z,15.9
2019-01-03T01:38:52.990Z,14.2
2019-01-03T01:44:18.005Z,12.8
2019-01-03T01:49:40.676Z,11.7
2019-01-03T01:55:05.012Z,16.200001
2019-01-03T02:00:28.744Z,13.1
2019-01-03T02:05:52.662Z,15.1
2019-01-03T02:11:16.714Z,12.8
2019-01-03T02:16:40.730Z,12.9
2019-01-03T02:22:08.702Z,19.799999
2019-01-03T02:27:33.011Z,16.6
2019-01-03T02:32:57.203Z,12.7
2019-01-03T02:38:20.508Z,11.9
2019-01-03T02:43:44.206Z,18
2019-01-03T02:49:08.109Z,15.9
2019-01-03T02:54:30.964Z,16.4
2019-01-03T02:59:57.377Z,16.700001
2019-01-03T03:05:22.021Z,10.7
2019-01-03T03:10:46.384Z,11
2019-01-03T03:16:10.296Z,14.6
2019-01-03T03:21:33.410Z,11.8
2019-01-03T03:26:56.344Z,12.3
2019-01-03T03:32:19.253Z,14.2
2019-01-03T03:37:42.007Z,10.6
2019-01-03T03:43:04.717Z,12
2019-01-03T03:48:29.220Z,16.299999
2019-01-03T03:53:54.001Z,14.5
2019-01-03T03:59:18.250Z,17
2019-01-03T04:04:41.421Z,13.1
2019-01-03T04:10:05.451Z,11.1
2019-01-03T04:15:28.409Z,10.6
2019-01-03T04:20:51.092Z,12.9
2019-01-03T04:26:13.782Z,14.7
2019-01-03T04:31:36.637Z,12.6
2019-01-03T04:36:59.602Z,11.1
2019-01-03T04:42:22.383Z,10.3
2019-01-03T04:47:46.602Z,12
2019-01-03T04:53:11.620Z,11.4
2019-01-03T04:58:34.704Z,11
2019-01-03T05:03:57.840Z,14.4
2019-01-03T05:09:20.959Z,14
2019-01-03T05:14:43.634Z,13.1
2019-01-03T05:20:08.490Z,8.7
2019-01-03T05:25:31.179Z,10.8
2019-01-03T05:30:56.099Z,10.6
2019-01-03T05:36:19.611Z,6.5
2019-01-03T05:41:42.943Z,11.2
2019-01-03T05:47:06.057Z,12.1
2019-01-03T05:52:29.302Z,11.4
2019-01-03T05:57:52.390Z,11.6
2019-01-03T06:03:15.233Z,8.4
2019-01-03T06:08:37.857Z,12.7
2019-01-03T06:14:01.692Z,14.6
2019-01-03T06:19:26.756Z,18.299999
2019-01-03T06:24:49.580Z,13.6
2019-01-03T06:30:12.500Z,15.1
2019-01-03T06:35:35.133Z,19.299999
2019-01-03T06:40:58.545Z,15.4
2019-01-03T06:46:21.505Z,20.200001
2019-01-03T06:51:44.792Z,18
2019-01-03T06:57:08.580Z,22.700001
2019-01-03T07:02:31.134Z,18.799999
2019-01-03T07:07:54.068Z,19.6
2019-01-03T07:13:16.813Z,14.9
2019-01-03T07:18:39.637Z,15.8
2019-01-03T07:24:05.441Z,19
2019-01-03T07:29:28.333Z,21.700001
2019-01-03T07:34:51.009Z,21.6
2019-01-03T07:40:13.754Z,22.1
2019-01-03T07:45:38.245Z,20
2019-01-03T07:51:01.100Z,21.9
2019-01-03T07:56:24.000Z,19.6
2019-01-03T08:02:02.632Z,16.799999
2019-01-03T08:07:36.632Z,13.8
2019-01-03T08:13:00.932Z,16.6
2019-01-03T08:18:23.755Z,15
2019-01-03T08:23:46.482Z,17.799999
2019-01-03T08:29:18.119Z,13.4
2019-01-03T08:34:41.822Z,21.6
2019-01-03T08:40:05.538Z,16
2019-01-03T08:45:37.504Z,14.2
2019-01-03T08:51:11.012Z,16
2019-01-03T08:56:42.643Z,13.4
2019-01-03T09:02:15.697Z,14.9
2019-01-03T09:07:40.373Z,17.200001
2019-01-03T09:13:03.415Z,15.8
2019-01-03T09:18:26.103Z,20.299999
2019-01-03T09:23:50.197Z,14.3
2019-01-03T09:29:13.673Z,12.1
2019-01-03T09:34:36.541Z,10.8
2019-01-03T09:39:59.321Z,16.1
2019-01-03T09:45:22.179Z,14.3
2019-01-03T09:50:44.996Z,14.5
2019-01-03T09:56:07.830Z,13.6
2019-01-03T10:01:30.587Z,11.2
2019-01-03T10:06:54.168Z,8.8
2019-01-03T10:12:18.981Z,10.1
2019-01-03T10:17:41.736Z,11.7
2019-01-03T10:23:04.630Z,9.7
2019-01-03T10:28:27.607Z,10.5
2019-01-03T10:33:51.514Z,7.3
2019-01-03T10:39:14.464Z,8.1
2019-01-03T10:44:37.887Z,7.8
2019-01-03T10:50:01.127Z,12.3
2019-01-03T10:55:23.997Z,9.3
2019-01-03T11:00:46.799Z,11.1
2019-01-03T11:06:09.504Z,12
2019-01-03T11:11:33.217Z,13.1
2019-01-03T11:16:56.877Z,13.1
2019-01-03T11:22:19.888Z,12.5
2019-01-03T11:27:42.791Z,12.8
2019-01-03T11:33:05.572Z,9.5
2019-01-03T11:38:28.237Z,11.2
2019-01-03T11:43:51.349Z,14.9
2019-01-03T11:49:14.076Z,12.1
2019-01-03T11:54:36.803Z,9.3
2019-01-03T11:59:58.893Z,13.1
2019-01-03T12:05:23.238Z,11.3
2019-01-03T12:10:46.981Z,12.6
2019-01-03T12:16:10.633Z,11.6
2019-01-03T12:21:33.431Z,8
2019-01-03T12:26:56.189Z,6.2
2019-01-03T12:32:20.671Z,7.9
2019-01-03T12:37:43.929Z,9.8
2019-01-03T12:43:09.605Z,8
2019-01-03T12:48:33.302Z,10.3
2019-01-03T12:53:56.277Z,4.2
2019-01-03T12:59:19.126Z,6.7
2019-01-03T13:04:41.840Z,9.7
2019-01-03T13:10:04.765Z,6.1
2019-01-03T13:15:38.189Z,6.8
2019-01-03T13:21:09.946Z,7
2019-01-03T13:26:46.955Z,5.1
2019-01-03T13:32:22.073Z,4.1
2019-01-03T13:37:55.934Z,6.3
2019-01-03T13:43:41.823Z,5.7
2019-01-03T13:49:14.894Z,7.1
2019-01-03T13:55:01.555Z,5.8
2019-01-03T14:00:32.027Z,6.5
2019-01-03T14:05:56.092Z,8.1
2019-01-03T14:11:19.502Z,11.3
2019-01-03T14:16:43.689Z,6.5
2019-01-03T14:22:13.698Z,6
2019-01-03T14:27:43.181Z,6.2
2019-01-03T14:33:15.525Z,6.1
2019-01-03T14:38:48.251Z,8
2019-01-03T14:44:12.502Z,6.7
2019-01-03T14:49:35.089Z,8.9
2019-01-03T14:54:59.538Z,7.7
2019-01-03T15:00:32.223Z,8.2
2019-01-03T15:06:04.679Z,9.4
2019-01-03T15:11:37.531Z,10.7
2019-01-03T15:17:28.193Z,6.2
2019-01-03T15:22:50.863Z,7.7
2019-01-03T15:28:14.717Z,5.9
2019-01-03T15:33:49.705Z,9.5
2019-01-03T15:39:23.685Z,9.9
2019-01-03T15:45:19.214Z,7.4
2019-01-03T15:50:43.154Z,10.4
2019-01-03T15:56:07.671Z,7.2
2019-01-03T16:01:39.287Z,6.2
2019-01-03T16:07:15.158Z,9
2019-01-03T16:12:46.908Z,12.1
2019-01-03T16:18:19.737Z,7.9
2019-01-03T16:23:43.573Z,10
2019-01-03T16:29:06.990Z,7.9
2019-01-03T16:34:40.822Z,10.8
2019-01-03T16:40:15.631Z,7.7
2019-01-03T16:45:51.378Z,7.6
2019-01-03T16:51:33.545Z,9.5
2019-01-03T16:57:06.702Z,9.7
2019-01-03T17:02:39.270Z,7.8
2019-01-03T17:08:03.970Z,10.3
2019-01-03T17:13:27.597Z,7.3
2019-01-03T17:19:03.573Z,8
2019-01-03T17:24:35.240Z,11.5
2019-01-03T17:30:08.913Z,9.2
2019-01-03T17:35:36.272Z,7.3
2019-01-03T17:41:02.607Z,13.2
2019-01-03T17:46:35.975Z,17.5
2019-01-03T17:51:59.613Z,12.6
2019-01-03T17:57:23.043Z,11.1
2019-01-03T18:02:45.775Z,15.8
2019-01-03T18:08:09.947Z,14.7
2019-01-03T18:13:33.991Z,13.8
2019-01-03T18:19:08.709Z,13.4
2019-01-03T18:24:42.090Z,16.200001
2019-01-03T18:30:15.776Z,20.1
2019-01-03T18:35:48.827Z,13.3
2019-01-03T18:41:12.544Z,18.6
2019-01-03T18:46:48.742Z,20.799999
2019-01-03T18:52:12.825Z,21
2019-01-03T18:57:48.545Z,26.4
2019-01-03T19:03:11.483Z,20.6
2019-01-03T19:08:45.977Z,20.5
2019-01-03T19:14:18.847Z,22.200001
2019-01-03T19:19:52.783Z,19.4
2019-01-03T19:25:26.229Z,20.700001
2019-01-03T19:30:59.504Z,18.4
2019-01-03T19:36:33.320Z,25.6
2019-01-03T19:42:06.078Z,21.5
2019-01-03T19:47:39.469Z,23.5
2019-01-03T19:53:07.361Z,13.7
2019-01-03T19:58:40.991Z,17.799999
2019-01-03T20:04:14.516Z,20.700001
2019-01-03T20:09:47.849Z,17.4
2019-01-03T20:15:21.350Z,17.700001
2019-01-03T20:20:54.007Z,25.799999
2019-01-03T20:26:27.959Z,19.299999
2019-01-03T20:32:01.219Z,20.6
2019-01-03T20:37:33.676Z,22.6
2019-01-03T20:43:05.707Z,18.5
2019-01-03T20:48:30.027Z,19.6
2019-01-03T20:54:05.161Z,19.6
2019-01-03T21:00:07.974Z,20.1
2019-01-03T21:05:42.290Z,22
2019-01-03T21:11:17.760Z,25.200001
2019-01-03T21:16:51.861Z,25.799999
2019-01-03T21:22:24.337Z,22
2019-01-03T21:27:47.968Z,25.9
2019-01-03T21:33:14.059Z,21.4
2019-01-03T21:38:39.039Z,24.200001
2019-01-03T21:44:04.245Z,25.4
2019-01-03T21:49:30.168Z,41.299999
2019-01-03T21:54:55.624Z,29.5
2019-01-03T22:00:20.602Z,39.900002
2019-01-03T22:05:49.015Z,34.200001
2019-01-03T22:11:13.940Z,47.299999
2019-01-03T22:16:38.564Z,60.700001
2019-01-03T22:22:41.757Z,39.099998
2019-01-03T22:28:14.312Z,70.599998
2019-01-03T22:33:37.027Z,71.199997
2019-01-03T22:39:10.560Z,294.79998
2019-01-03T22:44:45.977Z,285
2019-01-03T22:50:19.355Z,624.5
2019-01-03T22:55:55.228Z,475.5
2019-01-03T23:01:53.092Z,345.79998
2019-01-03T23:07:25.104Z,224.3
2019-01-03T23:12:58.246Z,342.89999
2019-01-03T23:18:33.934Z,242.3
2019-01-03T23:24:10.313Z,198
2019-01-03T23:29:46.823Z,505.6
2019-01-03T23:35:19.066Z,223.6
2019-01-03T23:40:43.353Z,313
2019-01-03T23:46:06.064Z,500.1
2019-01-03T23:51:29.751Z,512.90002
2019-01-03T23:56:53.567Z,513.29998
